Phitsanulok, Thailand
Current Conditions -  °F | °C
As of 8:00 AM on Saturday 29 Nov 2014 (Local Time) from VTPP Reporting Station
Scattered Clouds Scattered Clouds  
Wind Chill: 79°   Ceiling: Unl
Heat Index: 82°   Visibility: 5mi
Dew Point: 72°   Wind: 6mph
Humidity: 78%   Direction: 40°NE
Pressure: 29.85"   Gusts: NA
Location:  16.82°N, 100.27°E
Report Text: VTPP 290100Z 04005KT 8000 FEW027 SCT300 26/22 Q1011
Loading
Personal Weather Stations






























Interactive Weather Map New forecast layout! Learn more

10-Day Weather Forecast

Advertisements
Track Severe Weather on mobile